Time;durP1;ratioP1;P1;durP2;ratioP2;P2;SDS_P1;SDS_P2;PMS_P1;PMS_P2;Temp;Humidity;BMP_temperature;BMP_pressure;BME280_temperature;BME280_humidity;BME280_pressure;Samples;Min_cycle;Max_cycle;Signal;HPM_P1;HPM_P2
2023/08/19 00:01:04;;;;;;;;;19.75;18.75;;;;;28.15;75.46;100592.69;5095485;27;45326;-66
2023/08/19 00:03:30;;;;;;;;;23.50;21.00;;;;;28.14;75.89;100590.97;5097002;27;45492;-66
2023/08/19 00:05:59;;;;;;;;;19.50;17.75;;;;;28.14;75.47;100599.22;5101534;27;45514;-66
2023/08/19 00:08:25;;;;;;;;;20.50;20.25;;;;;28.14;75.94;100596.47;5101443;27;45954;-66
2023/08/19 00:10:50;;;;;;;;;20.50;18.50;;;;;28.11;75.67;100597.66;5097231;27;49276;-66
2023/08/19 00:13:15;;;;;;;;;19.00;17.50;;;;;28.12;76.18;100599.38;5095710;27;45538;-66
2023/08/19 00:15:40;;;;;;;;;19.50;17.50;;;;;28.13;76.28;100597.50;5101385;27;46590;-66
2023/08/19 00:18:06;;;;;;;;;18.50;17.75;;;;;28.09;76.46;100602.47;5101121;27;48071;-66
2023/08/19 00:20:32;;;;;;;;;18.25;17.50;;;;;28.13;75.66;100601.06;5094162;27;45432;-66
2023/08/19 00:22:58;;;;;;;;;19.50;19.50;;;;;28.12;76.33;100612.22;5097008;27;45317;-66
2023/08/19 00:25:24;;;;;;;;;19.50;18.75;;;;;28.09;75.61;100611.53;5090810;27;58444;-66
2023/08/19 00:27:51;;;;;;;;;19.00;18.00;;;;;28.04;75.61;100613.91;5100173;27;45278;-66
2023/08/19 00:30:16;;;;;;;;;23.50;20.75;;;;;28.11;75.76;100626.97;5092240;27;45300;-66
2023/08/19 00:32:42;;;;;;;;;20.25;20.25;;;;;28.07;76.35;100624.56;5095556;27;45623;-66
2023/08/19 00:35:07;;;;;;;;;20.00;19.75;;;;;28.08;76.23;100637.28;5100988;27;46225;-65
2023/08/19 00:37:35;;;;;;;;;20.75;20.75;;;;;28.00;76.20;100629.00;5091033;27;45375;-66
2023/08/19 00:40:04;;;;;;;;;23.25;21.25;;;;;28.01;76.07;100627.97;5101089;27;45411;-66
2023/08/19 00:42:29;;;;;;;;;25.00;22.00;;;;;28.01;76.13;100627.97;5093329;27;45452;-66
2023/08/19 00:44:54;;;;;;;;;24.00;22.25;;;;;28.00;76.31;100631.75;5098789;27;47175;-66
2023/08/19 00:47:20;;;;;;;;;23.25;21.75;;;;;27.98;75.97;100624.72;5100726;27;45376;-66
2023/08/19 00:49:47;;;;;;;;;19.25;18.00;;;;;27.93;75.86;100622.44;5100216;27;45455;-66
2023/08/19 00:52:12;;;;;;;;;22.00;20.25;;;;;27.91;75.89;100625.31;5094758;27;45466;-66
2023/08/19 00:54:37;;;;;;;;;22.25;21.75;;;;;27.91;76.10;100624.47;5100086;27;45513;-66
2023/08/19 00:57:03;;;;;;;;;19.25;18.75;;;;;27.88;76.17;100620.19;5094327;27;45435;-66
2023/08/19 00:59:29;;;;;;;;;21.00;21.00;;;;;27.94;76.14;100617.84;5096244;27;45396;-66
2023/08/19 01:01:54;;;;;;;;;24.00;21.00;;;;;27.91;76.07;100613.50;5097312;27;45553;-66
2023/08/19 01:04:19;;;;;;;;;20.75;19.25;;;;;27.93;75.82;100622.44;5093198;27;46031;-66
2023/08/19 01:07:03;;;;;;;;;20.00;20.00;;;;;27.93;75.70;100622.44;5088517;27;45433;-66
2023/08/19 01:09:43;;;;;;;;;19.50;19.00;;;;;27.94;76.11;100623.34;5100427;27;45356;-66
2023/08/19 01:12:24;;;;;;;;;16.00;15.00;;;;;27.93;76.19;100629.84;5089399;27;45532;-65
2023/08/19 01:15:03;;;;;;;;;19.25;19.25;;;;;27.91;75.61;100628.06;5097578;27;47329;-66
2023/08/19 01:17:31;;;;;;;;;21.50;20.25;;;;;27.87;76.05;100629.44;5090332;27;45305;-65
2023/08/19 01:19:57;;;;;;;;;19.25;19.25;;;;;27.92;75.96;100642.66;5100708;27;45359;-66
2023/08/19 01:22:38;;;;;;;;;22.50;18.25;;;;;27.91;76.23;100640.94;5088378;27;45609;-66
2023/08/19 01:25:06;;;;;;;;;20.25;18.25;;;;;27.87;75.91;100639.56;5100268;27;46266;-66
2023/08/19 01:27:31;;;;;;;;;19.75;19.00;;;;;27.86;75.65;100646.06;5096106;27;45329;-66
2023/08/19 01:29:56;;;;;;;;;18.50;17.50;;;;;27.88;75.96;100658.59;5091232;27;45372;-66
2023/08/19 01:32:23;;;;;;;;;19.50;18.00;;;;;27.87;75.41;100648.63;5088611;27;45261;-65
2023/08/19 01:34:49;;;;;;;;;18.25;17.75;;;;;27.85;76.38;100656.19;5095808;27;45433;-65
2023/08/19 01:37:43;;;;;;;;;18.50;18.50;;;;;27.83;75.98;100657.34;5089972;27;45394;-65
2023/08/19 01:40:13;;;;;;;;;20.00;20.00;;;;;27.82;76.27;100652.91;5098866;27;45403;-65
2023/08/19 01:42:39;;;;;;;;;22.75;21.50;;;;;27.79;75.13;100656.84;5098488;27;45313;-65
2023/08/19 01:45:06;;;;;;;;;15.75;14.25;;;;;27.85;76.01;100677.25;5099859;27;46171;-65
2023/08/19 01:47:31;;;;;;;;;19.25;18.00;;;;;27.81;75.21;100671.22;5098018;27;45271;-66
2023/08/19 01:49:57;;;;;;;;;17.00;16.50;;;;;27.77;75.88;100666.25;5098447;27;48865;-65
2023/08/19 01:52:22;;;;;;;;;19.50;18.00;;;;;27.78;75.89;100674.28;5099214;27;45393;-66
2023/08/19 01:54:48;;;;;;;;;21.00;20.25;;;;;27.78;75.68;100679.78;5097937;27;46309;-66
2023/08/19 01:57:13;;;;;;;;;18.25;16.50;;;;;27.79;76.48;100672.44;5089176;27;45360;-66
2023/08/19 01:59:39;;;;;;;;;20.00;18.75;;;;;27.78;76.56;100682.53;5099841;27;45413;-65
2023/08/19 02:02:04;;;;;;;;;22.25;20.25;;;;;27.77;75.22;100686.31;5098079;27;45581;-66
2023/08/19 02:04:29;;;;;;;;;16.25;16.00;;;;;27.75;74.97;100679.25;5086130;27;45444;-65
2023/08/19 02:06:55;;;;;;;;;20.00;19.00;;;;;27.71;74.85;100682.31;5099385;27;45340;-66
2023/08/19 02:09:20;;;;;;;;;14.75;14.75;;;;;27.68;74.08;100677.19;5092867;27;45365;-66
2023/08/19 02:11:45;;;;;;;;;14.25;13.50;;;;;27.70;72.96;100680.63;5097181;27;45461;-66
2023/08/19 02:14:11;;;;;;;;;14.75;14.75;;;;;27.66;73.03;100686.59;5099205;27;46292;-66
2023/08/19 02:16:36;;;;;;;;;13.25;13.25;;;;;27.61;72.46;100678.84;5097277;27;45434;-66
2023/08/19 02:19:01;;;;;;;;;17.50;15.50;;;;;27.61;72.01;100677.97;5085285;27;45408;-66
2023/08/19 02:21:27;;;;;;;;;16.75;14.75;;;;;27.62;72.62;100686.06;5098892;27;45372;-66
2023/08/19 02:23:53;;;;;;;;;14.75;14.75;;;;;27.60;72.38;100687.22;5099338;27;45329;-66
2023/08/19 02:26:19;;;;;;;;;14.25;13.25;;;;;27.61;71.89;100684.31;5096413;27;46231;-66
2023/08/19 02:28:44;;;;;;;;;15.00;12.50;;;;;27.60;71.52;100695.44;5091891;27;45444;-65
2023/08/19 02:31:10;;;;;;;;;14.00;13.75;;;;;27.55;71.09;100687.72;5089332;27;45471;-66
2023/08/19 02:33:36;;;;;;;;;16.00;16.00;;;;;27.55;71.20;100695.97;5099107;27;49884;-66
2023/08/19 02:36:01;;;;;;;;;14.50;14.50;;;;;27.57;70.80;100698.53;5093844;27;45296;-66
2023/08/19 02:38:27;;;;;;;;;13.75;12.75;;;;;27.56;71.16;100707.78;5085676;27;45310;-66
2023/08/19 02:40:52;;;;;;;;;15.00;14.25;;;;;27.53;70.81;100714.41;5098552;27;45239;-66
2023/08/19 02:43:18;;;;;;;;;16.50;15.25;;;;;27.53;71.37;100715.31;5098291;27;53200;-66
2023/08/19 02:45:45;;;;;;;;;15.25;14.50;;;;;27.52;70.38;100719.06;5099175;27;45388;-66
2023/08/19 02:48:11;;;;;;;;;15.25;15.25;;;;;27.49;70.52;100716.63;5093391;27;45494;-66
2023/08/19 02:50:36;;;;;;;;;15.50;15.50;;;;;27.48;70.20;100712.19;5099206;27;45379;-66
2023/08/19 02:53:01;;;;;;;;;16.25;14.75;;;;;27.42;69.95;100709.22;5098291;27;46221;-66
2023/08/19 02:55:27;;;;;;;;;13.25;13.25;;;;;27.43;69.76;100717.28;5093303;27;45549;-65
2023/08/19 02:57:52;;;;;;;;;17.50;16.25;;;;;27.49;69.64;100737.72;5091063;27;48236;-66
2023/08/19 03:00:17;;;;;;;;;13.50;12.50;;;;;27.49;69.93;100738.56;5099122;27;45342;-66
2023/08/19 03:02:47;;;;;;;;;12.50;12.50;;;;;27.44;69.93;100735.44;5088283;27;46123;-66
2023/08/19 03:05:13;;;;;;;;;15.75;15.50;;;;;27.44;69.61;100737.34;5087873;27;45241;-65
2023/08/19 03:07:38;;;;;;;;;16.00;13.75;;;;;27.43;70.14;100741.09;5087464;27;45565;-66
2023/08/19 03:10:04;;;;;;;;;15.25;15.00;;;;;27.44;69.58;100740.06;5088994;27;45471;-65
2023/08/19 03:12:30;;;;;;;;;15.75;14.25;;;;;27.43;69.73;100730.13;5097563;27;46168;-66
2023/08/19 03:14:55;;;;;;;;;14.50;13.00;;;;;27.32;69.88;100728.50;5102033;27;50316;-65
2023/08/19 03:17:20;;;;;;;;;14.50;13.50;;;;;27.34;69.38;100730.06;5101204;27;45369;-66
2023/08/19 03:19:46;;;;;;;;;13.25;13.25;;;;;27.40;69.94;100745.03;5102207;27;45437;-66
2023/08/19 03:22:11;;;;;;;;;15.00;15.00;;;;;27.40;69.51;100752.34;5101761;27;46041;-66
2023/08/19 03:24:37;;;;;;;;;14.00;13.00;;;;;27.38;69.49;100747.03;5100845;27;45333;-66
2023/08/19 03:27:02;;;;;;;;;15.75;14.75;;;;;27.37;69.62;100753.56;5088921;27;48052;-66
2023/08/19 03:29:27;;;;;;;;;14.50;14.25;;;;;27.30;69.78;100752.47;5093647;27;45380;-66
2023/08/19 03:31:53;;;;;;;;;13.50;13.50;;;;;27.34;69.07;100760.19;5089555;27;45357;-66
2023/08/19 03:34:18;;;;;;;;;13.00;13.00;;;;;27.26;69.21;100743.66;5098552;27;45294;-66
2023/08/19 03:36:43;;;;;;;;;15.50;15.25;;;;;27.34;69.31;100754.72;5089126;27;45764;-66
2023/08/19 03:39:08;;;;;;;;;14.75;13.50;;;;;27.36;69.36;100760.03;5092735;27;50143;-66
2023/08/19 03:41:34;;;;;;;;;15.00;14.25;;;;;27.35;68.74;100772.03;5099973;27;46015;-66
2023/08/19 03:43:59;;;;;;;;;13.75;12.50;;;;;27.33;68.65;100774.06;5088208;27;45346;-66
2023/08/19 03:46:24;;;;;;;;;14.75;12.50;;;;;27.31;68.46;100767.88;5094529;27;45485;-66
2023/08/19 03:48:50;;;;;;;;;12.50;12.50;;;;;27.29;68.70;100772.66;5097349;27;49705;-66
2023/08/19 03:51:15;;;;;;;;;12.25;12.25;;;;;27.26;68.45;100775.69;5089289;27;56035;-66
2023/08/19 03:53:40;;;;;;;;;13.75;11.50;;;;;27.23;67.94;100779.63;5085534;27;45290;-65
2023/08/19 03:56:06;;;;;;;;;5.50;4.75;;;;;27.24;67.38;100780.47;5087049;27;45400;-66
2023/08/19 03:58:31;;;;;;;;;13.00;12.25;;;;;27.20;67.66;100779.94;5098452;27;45262;-66
2023/08/19 04:01:05;;;;;;;;;12.75;12.50;;;;;27.24;66.92;100795.03;5081466;27;45411;-65
2023/08/19 04:03:30;;;;;;;;;11.00;10.00;;;;;27.22;67.74;100799.81;5094126;27;45586;-66
2023/08/19 04:05:55;;;;;;;;;10.00;9.00;;;;;27.22;67.15;100804.44;5101845;27;45336;-65
2023/08/19 04:08:21;;;;;;;;;14.25;14.00;;;;;27.17;66.72;100808.50;5082425;27;51600;-65
2023/08/19 04:10:46;;;;;;;;;13.00;13.00;;;;;27.15;67.14;100813.28;5081314;27;46109;-66
2023/08/19 04:13:11;;;;;;;;;11.50;11.25;;;;;27.14;66.86;100807.94;5084997;27;45289;-66
2023/08/19 04:15:36;;;;;;;;;11.00;11.00;;;;;27.11;66.50;100813.72;5091517;27;45546;-66
2023/08/19 04:18:02;;;;;;;;;12.50;11.75;;;;;27.08;66.79;100816.78;5096615;27;45301;-66
2023/08/19 04:20:28;;;;;;;;;14.00;11.50;;;;;27.09;66.07;100821.25;5091412;27;47137;-65
2023/08/19 04:22:53;;;;;;;;;12.50;12.25;;;;;27.10;66.83;100829.31;5082419;27;45448;-66
2023/08/19 04:25:18;;;;;;;;;11.75;11.75;;;;;27.09;66.30;100834.94;5086969;27;60565;-65
2023/08/19 04:27:44;;;;;;;;;11.75;10.50;;;;;27.09;66.62;100848.66;5090151;27;45601;-66
2023/08/19 04:30:10;;;;;;;;;9.25;8.50;;;;;27.04;66.20;100848.25;5101266;27;45825;-65
2023/08/19 04:32:35;;;;;;;;;11.75;11.75;;;;;27.05;66.07;100856.31;5096770;27;46156;-66
2023/08/19 04:35:00;;;;;;;;;13.50;11.75;;;;;26.99;65.98;100856.94;5091490;27;45504;-65
2023/08/19 04:37:26;;;;;;;;;11.00;10.75;;;;;27.03;66.07;100868.44;5091852;27;45460;-65
2023/08/19 04:39:52;;;;;;;;;10.00;9.75;;;;;27.01;65.93;100868.59;5099650;27;54150;-65
2023/08/19 04:42:18;;;;;;;;;10.25;9.50;;;;;26.95;65.84;100872.81;5093603;27;45499;-65
2023/08/19 04:44:43;;;;;;;;;10.75;10.75;;;;;26.92;65.65;100875.00;5091580;27;45294;-65
2023/08/19 04:47:09;;;;;;;;;7.50;7.50;;;;;26.92;65.45;100886.81;5087055;27;45399;-65
2023/08/19 04:49:34;;;;;;;;;10.00;10.00;;;;;26.88;65.25;100871.72;5098769;27;45420;-65
2023/08/19 04:51:59;;;;;;;;;9.00;8.00;;;;;26.83;65.45;100871.31;5091731;27;47900;-65
2023/08/19 04:54:25;;;;;;;;;9.50;8.00;;;;;26.84;65.09;100888.59;5090349;27;52456;-65
2023/08/19 04:56:50;;;;;;;;;5.00;5.00;;;;;26.83;65.17;100895.97;5085938;27;45427;-65
2023/08/19 04:59:16;;;;;;;;;9.25;7.50;;;;;26.82;65.05;100901.59;5090520;27;45334;-65
2023/08/19 05:01:41;;;;;;;;;7.75;7.75;;;;;26.81;65.08;100903.44;5100569;27;46582;-65
2023/08/19 05:04:07;;;;;;;;;9.00;6.00;;;;;26.75;65.12;100899.44;5090000;27;45334;-66
2023/08/19 05:06:32;;;;;;;;;7.25;6.50;;;;;26.75;64.91;100902.19;5081727;27;45349;-65
2023/08/19 05:08:57;;;;;;;;;6.75;6.75;;;;;26.74;64.97;100897.72;5080206;27;46233;-66
2023/08/19 05:11:22;;;;;;;;;6.50;6.25;;;;;26.77;64.75;100910.25;5081590;27;45311;-65
2023/08/19 05:13:48;;;;;;;;;6.25;5.75;;;;;26.71;64.79;100905.38;5079299;27;45576;-66
2023/08/19 05:16:13;;;;;;;;;7.00;7.00;;;;;26.73;64.30;100911.53;5090864;27;46192;-65
2023/08/19 05:18:38;;;;;;;;;8.75;7.75;;;;;26.71;64.21;100911.69;5114575;27;48097;-65
2023/08/19 05:21:04;;;;;;;;;8.00;7.50;;;;;26.68;64.33;100916.63;5090222;27;45481;-65
2023/08/19 05:23:29;;;;;;;;;6.00;6.00;;;;;26.64;64.66;100912.47;5099646;27;45853;-66
2023/08/19 05:25:54;;;;;;;;;5.50;5.50;;;;;26.64;64.62;100916.06;5082800;27;53989;-65
2023/08/19 05:28:20;;;;;;;;;5.25;5.00;;;;;26.68;64.56;100924.81;5092270;27;59978;-65
2023/08/19 05:30:45;;;;;;;;;5.50;5.50;;;;;26.62;64.60;100913.44;5097873;27;45386;-66
2023/08/19 05:33:10;;;;;;;;;8.00;7.00;;;;;26.70;64.66;100931.03;5091509;27;45359;-66
2023/08/19 05:35:36;;;;;;;;;8.25;8.25;;;;;26.69;64.62;100934.78;5079234;27;55724;-66
2023/08/19 05:38:01;;;;;;;;;6.50;6.50;;;;;26.62;64.89;100929.00;5092221;27;53798;-65
2023/08/19 05:40:27;;;;;;;;;8.50;8.50;;;;;26.59;64.48;100930.16;5084656;27;45436;-66
2023/08/19 05:42:52;;;;;;;;;8.25;8.25;;;;;26.61;64.84;100947.31;5094853;27;45483;-66
2023/08/19 05:45:17;;;;;;;;;6.25;5.00;;;;;26.60;64.73;100942.84;5099276;27;45299;-66
2023/08/19 05:47:43;;;;;;;;;4.75;4.75;;;;;26.61;64.59;100949.16;5096732;27;45408;-66
2023/08/19 05:50:08;;;;;;;;;8.00;7.25;;;;;26.60;64.46;100952.94;5098594;27;45448;-66
2023/08/19 05:52:33;;;;;;;;;9.50;7.25;;;;;26.61;64.73;100960.13;5084924;27;45401;-65
2023/08/19 05:54:59;;;;;;;;;6.00;6.00;;;;;26.55;64.64;100955.25;5096690;27;45460;-65
2023/08/19 05:57:24;;;;;;;;;7.25;7.25;;;;;26.55;64.93;100955.25;5091218;27;45283;-65
2023/08/19 05:59:50;;;;;;;;;8.00;7.25;;;;;26.54;64.85;100961.75;5093139;27;49126;-66
2023/08/19 06:02:15;;;;;;;;;6.50;6.50;;;;;26.54;65.20;100959.84;5083219;27;50230;-66
2023/08/19 06:04:40;;;;;;;;;10.00;8.00;;;;;26.55;64.86;100955.25;5095642;27;45645;-65
2023/08/19 06:07:06;;;;;;;;;7.50;7.00;;;;;26.55;65.10;100950.63;5090294;27;46367;-65
2023/08/19 06:09:31;;;;;;;;;6.25;6.00;;;;;26.54;65.38;100965.31;5096843;27;45235;-65
2023/08/19 06:11:56;;;;;;;;;9.00;7.50;;;;;26.56;65.74;100963.34;5090836;27;45383;-65
2023/08/19 06:14:22;;;;;;;;;6.50;5.50;;;;;26.51;65.65;100954.66;5087825;27;45344;-65
2023/08/19 06:16:47;;;;;;;;;7.25;7.00;;;;;26.51;66.18;100968.34;5088809;27;47973;-65
2023/08/19 06:19:13;;;;;;;;;7.00;6.25;;;;;26.49;65.41;100975.88;5097627;27;45365;-65
2023/08/19 06:21:38;;;;;;;;;5.00;5.00;;;;;26.50;65.35;100982.22;5091080;27;45525;-65
2023/08/19 06:24:04;;;;;;;;;5.00;5.00;;;;;26.50;65.49;100990.44;5078938;27;45516;-66
2023/08/19 06:26:30;;;;;;;;;4.50;4.50;;;;;26.47;65.49;100990.72;5094552;27;46396;-64
2023/08/19 06:28:55;;;;;;;;;6.25;5.00;;;;;26.46;64.97;100988.97;5094226;27;45516;-65
2023/08/19 06:31:21;;;;;;;;;7.00;6.50;;;;;26.42;65.43;100999.38;5093555;27;45297;-64
2023/08/19 06:33:47;;;;;;;;;6.00;5.00;;;;;26.44;65.42;101011.88;5078960;27;45517;-65
2023/08/19 06:36:20;;;;;;;;;5.00;5.00;;;;;26.43;65.09;101023.84;5078860;27;46088;-66
2023/08/19 06:38:49;;;;;;;;;5.00;4.50;;;;;26.39;64.94;101018.81;5087397;27;45586;-65
2023/08/19 06:41:16;;;;;;;;;4.50;4.50;;;;;26.43;64.82;101036.69;5093039;27;45376;-65
2023/08/19 06:43:43;;;;;;;;;5.50;5.25;;;;;26.37;64.96;101026.31;5097331;27;45555;-65
2023/08/19 06:46:09;;;;;;;;;5.25;5.25;;;;;26.40;65.42;101036.97;5086210;27;46195;-65
2023/08/19 06:48:35;;;;;;;;;4.50;4.00;;;;;26.39;65.01;101032.50;5086113;27;45376;-65
2023/08/19 06:51:02;;;;;;;;;5.50;5.50;;;;;26.39;65.10;101032.50;5102585;27;45464;-65
2023/08/19 06:53:28;;;;;;;;;4.50;4.50;;;;;26.37;65.09;101037.25;5094187;27;45415;-64
2023/08/19 06:56:11;;;;;;;;;6.00;4.50;;;;;26.37;65.36;101040.84;5090190;27;45593;-64
2023/08/19 06:58:41;;;;;;;;;4.00;3.50;;;;;26.31;64.99;101037.81;5091760;27;45554;-65
2023/08/19 07:01:14;;;;;;;;;5.50;4.00;;;;;26.32;65.49;101045.03;5094860;27;45389;-65
2023/08/19 07:03:39;;;;;;;;;4.00;4.00;;;;;26.31;65.09;101048.78;5097143;27;45437;-65
2023/08/19 07:06:07;;;;;;;;;5.00;4.75;;;;;26.27;65.27;101053.69;5088479;27;45458;-66
2023/08/19 07:08:36;;;;;;;;;5.25;4.00;;;;;26.28;65.69;101058.16;5097760;27;45247;-66
2023/08/19 07:11:02;;;;;;;;;3.25;3.25;;;;;26.30;65.37;101068.97;5105304;27;45449;-66
2023/08/19 07:13:28;;;;;;;;;7.00;6.00;;;;;26.29;65.33;101067.22;5086069;27;45528;-66
2023/08/19 07:16:03;;;;;;;;;4.00;4.00;;;;;26.21;65.49;101048.78;5095594;27;45401;-67
2023/08/19 07:18:35;;;;;;;;;3.00;3.00;;;;;26.25;65.47;101063.91;5098071;27;45544;-67
2023/08/19 07:21:02;;;;;;;;;4.25;4.25;;;;;26.23;65.62;101055.84;5093485;27;45558;-68
2023/08/19 07:23:28;;;;;;;;;5.00;5.00;;;;;26.22;65.93;101053.25;5092913;27;45467;-67
2023/08/19 07:25:54;;;;;;;;;3.00;3.00;;;;;26.21;65.76;101051.50;5088451;27;45358;-68
2023/08/19 07:28:22;;;;;;;;;3.50;3.50;;;;;26.21;65.50;101046.94;5082173;27;45459;-68
2023/08/19 07:30:47;;;;;;;;;4.75;4.75;;;;;26.20;65.89;101060.75;5097881;27;45434;-68
2023/08/19 07:33:13;;;;;;;;;5.50;3.75;;;;;26.20;65.85;101067.06;5094465;27;45452;-68
2023/08/19 07:35:41;;;;;;;;;4.00;4.00;;;;;26.17;66.11;101070.09;5095881;27;50501;-68
2023/08/19 07:38:06;;;;;;;;;3.25;3.25;;;;;26.13;65.70;101090.56;5086475;27;45523;-68
2023/08/19 07:40:32;;;;;;;;;4.75;4.75;;;;;26.11;65.52;101099.88;5089333;27;45529;-68
2023/08/19 07:42:57;;;;;;;;;3.25;3.25;;;;;26.12;65.80;101107.97;5080118;27;45424;-67
2023/08/19 07:45:22;;;;;;;;;3.25;3.25;;;;;26.12;65.51;101105.22;5088416;27;45598;-67
2023/08/19 07:47:48;;;;;;;;;2.00;2.00;;;;;26.11;65.50;101108.09;5090607;27;45480;-67
2023/08/19 07:50:13;;;;;;;;;4.25;4.25;;;;;26.07;65.43;101102.06;5088917;27;45345;-68
2023/08/19 07:52:41;;;;;;;;;4.00;2.25;;;;;25.97;65.30;101090.22;5098586;27;45325;-69
2023/08/19 07:55:07;;;;;;;;;3.50;3.50;;;;;25.95;65.49;101094.97;5092977;27;57363;-72
2023/08/19 07:57:32;;;;;;;;;4.00;4.00;;;;;26.03;65.22;101137.03;5083505;27;45772;-69
2023/08/19 07:59:58;;;;;;;;;3.00;3.00;;;;;25.97;65.52;101143.06;5084716;27;45658;-69
2023/08/19 08:02:23;;;;;;;;;3.50;2.00;;;;;25.99;66.36;101165.66;5094885;27;45350;-70
2023/08/19 08:04:49;;;;;;;;;2.50;2.50;;;;;25.93;67.06;101173.53;5086862;27;46160;-70
2023/08/19 08:07:14;;;;;;;;;4.00;3.00;;;;;25.91;67.71;101181.00;5093707;27;45610;-70
2023/08/19 08:09:41;;;;;;;;;4.50;3.25;;;;;25.87;69.05;101173.06;5086714;27;45533;-69
2023/08/19 08:12:07;;;;;;;;;3.00;3.00;;;;;25.85;68.76;101176.97;5096739;27;45821;-70
2023/08/19 08:14:32;;;;;;;;;3.25;3.25;;;;;25.86;69.11;101206.03;5086495;27;47238;-69
2023/08/19 08:16:57;;;;;;;;;3.75;3.25;;;;;25.82;69.08;101241.00;5093746;27;46028;-69
2023/08/19 08:19:25;;;;;;;;;2.50;2.50;;;;;25.83;68.88;101267.34;5088825;27;45377;-68
2023/08/19 08:21:51;;;;;;;;;6.50;4.25;;;;;25.72;69.41;101253.75;5081761;27;45639;-68
2023/08/19 08:24:17;;;;;;;;;4.50;4.00;;;;;25.75;69.65;101258.09;5095226;27;46328;-68
2023/08/19 08:26:42;;;;;;;;;6.75;4.25;;;;;25.70;70.26;101237.47;5087462;27;45520;-68
2023/08/19 08:29:08;;;;;;;;;5.00;3.75;;;;;25.67;71.06;101225.97;5092911;27;54449;-68
2023/08/19 08:31:33;;;;;;;;;4.00;4.00;;;;;25.63;70.96;101219.91;5090136;27;45531;-68
2023/08/19 08:33:59;;;;;;;;;5.25;3.50;;;;;25.62;71.58;101217.31;5079784;27;47169;-67
2023/08/19 08:36:24;;;;;;;;;4.25;4.25;;;;;25.62;71.71;101215.44;5087480;27;45473;-68
2023/08/19 08:38:49;;;;;;;;;4.25;4.25;;;;;25.57;71.83;101212.25;5085586;27;45460;-68
2023/08/19 08:41:15;;;;;;;;;4.75;4.75;;;;;25.55;72.67;101213.38;5091411;27;45494;-68
2023/08/19 08:43:40;;;;;;;;;5.00;5.00;;;;;25.51;72.11;101231.94;5086320;27;45488;-68
2023/08/19 08:46:06;;;;;;;;;3.75;2.75;;;;;25.58;72.69;101232.25;5089659;27;45440;-69
2023/08/19 08:48:33;;;;;;;;;5.00;4.25;;;;;25.51;73.23;101224.59;5091535;27;45489;-70
2023/08/19 08:50:59;;;;;;;;;6.00;4.25;;;;;25.50;72.85;101232.91;5099756;27;45491;-69
2023/08/19 08:53:28;;;;;;;;;4.00;4.00;;;;;25.42;73.58;101254.59;5085959;27;48129;-69
2023/08/19 08:55:55;;;;;;;;;6.00;4.00;;;;;25.45;73.82;101268.84;5090408;27;45392;-69
2023/08/19 08:58:20;;;;;;;;;4.50;4.50;;;;;25.40;74.43;101253.88;5080030;27;45367;-69
2023/08/19 09:00:47;;;;;;;;;5.00;5.00;;;;;25.41;74.58;101244.66;5098173;27;45625;-69
2023/08/19 09:03:23;;;;;;;;;4.75;4.25;;;;;25.31;74.85;101222.75;5094865;27;46490;-69
2023/08/19 09:05:55;;;;;;;;;6.50;5.50;;;;;25.29;74.77;101217.41;5096276;27;45626;-69
2023/08/19 09:08:28;;;;;;;;;4.50;4.00;;;;;25.25;74.85;101256.88;5084170;27;46422;-70
2023/08/19 09:10:53;;;;;;;;;3.50;3.00;;;;;25.32;75.39;101255.38;5093773;27;46314;-69
2023/08/19 09:13:24;;;;;;;;;6.00;5.00;;;;;25.30;75.94;101231.94;5084081;27;45608;-69
2023/08/19 09:15:49;;;;;;;;;4.50;3.25;;;;;25.25;75.97;101270.53;5083891;27;45593;-69
2023/08/19 09:18:17;;;;;;;;;5.25;3.25;;;;;25.23;76.46;101288.09;5083269;27;45435;-69
2023/08/19 09:20:43;;;;;;;;;5.25;5.25;;;;;25.22;76.39;101286.34;5092899;27;45479;-69
2023/08/19 09:23:09;;;;;;;;;4.00;4.00;;;;;25.20;76.20;101272.81;5089193;27;46036;-69
2023/08/19 09:25:35;;;;;;;;;4.00;4.00;;;;;25.20;77.23;101289.19;5087719;27;45460;-69
2023/08/19 09:28:00;;;;;;;;;4.25;4.25;;;;;25.21;77.38;101328.31;5090331;27;45243;-69
2023/08/19 09:30:33;;;;;;;;;4.00;4.00;;;;;25.23;77.40;101331.78;5093744;27;45386;-69
2023/08/19 09:32:59;;;;;;;;;4.75;4.00;;;;;25.22;77.31;101341.84;5086352;27;46235;-69
2023/08/19 09:35:33;;;;;;;;;4.25;4.25;;;;;25.21;77.49;101331.03;5097099;27;45462;-69
2023/08/19 09:37:58;;;;;;;;;5.25;3.50;;;;;25.13;78.16;101335.28;5089910;27;45515;-69
2023/08/19 09:40:23;;;;;;;;;6.00;5.50;;;;;25.11;78.54;101342.75;5090058;27;59705;-70
2023/08/19 09:42:49;;;;;;;;;2.75;2.50;;;;;25.11;78.25;101361.88;5093508;27;46242;-70
2023/08/19 09:45:19;;;;;;;;;5.00;5.00;;;;;25.11;79.02;101350.97;5088628;27;45570;-70
2023/08/19 09:47:49;;;;;;;;;6.25;4.50;;;;;25.13;78.96;101332.56;5097524;27;45445;-70
2023/08/19 09:50:16;;;;;;;;;5.00;3.00;;;;;25.03;78.37;101338.94;5095128;27;45448;-70
2023/08/19 09:52:41;;;;;;;;;5.00;5.00;;;;;24.99;78.09;101351.97;5078776;27;45392;-70
2023/08/19 09:55:07;;;;;;;;;6.25;3.25;;;;;24.98;78.47;101361.19;5086117;27;45585;-70
2023/08/19 09:57:35;;;;;;;;;5.00;4.00;;;;;25.04;78.62;101384.38;5086493;27;45634;-70
2023/08/19 10:00:05;;;;;;;;;4.50;4.00;;;;;25.05;79.31;101384.25;5091987;27;45406;-69
2023/08/19 10:02:33;;;;;;;;;6.00;5.00;;;;;25.00;79.06;101381.03;5097261;27;46795;-70
2023/08/19 10:04:59;;;;;;;;;6.50;5.25;;;;;24.92;79.29;101361.69;5088970;27;45618;-69
2023/08/19 10:07:31;;;;;;;;;4.50;3.00;;;;;24.96;79.49;101363.19;5096780;27;45424;-70
2023/08/19 10:10:01;;;;;;;;;7.00;6.00;;;;;24.94;79.77;101367.88;5088578;27;45471;-69
2023/08/19 10:12:27;;;;;;;;;3.00;3.00;;;;;24.89;80.57;101354.63;5082351;27;45431;-70
2023/08/19 10:14:57;;;;;;;;;6.25;5.75;;;;;24.86;80.12;101343.06;5098542;27;45405;-70
2023/08/19 10:17:25;;;;;;;;;6.00;5.50;;;;;24.83;80.82;101354.28;5091349;27;45355;-70
2023/08/19 10:19:56;;;;;;;;;6.75;6.75;;;;;24.77;80.96;101372.91;5097461;27;45477;-72
2023/08/19 10:22:22;;;;;;;;;8.25;6.00;;;;;24.71;81.12;101357.03;5083083;27;46368;-72
2023/08/19 10:24:51;;;;;;;;;7.00;6.00;;;;;24.70;82.01;101355.28;5089570;27;45663;-73
2023/08/19 10:27:17;;;;;;;;;8.00;7.00;;;;;24.80;81.46;101354.53;5088113;27;45454;-71
2023/08/19 10:29:45;;;;;;;;;7.00;6.25;;;;;24.75;81.85;101353.03;5098190;27;45315;-71
2023/08/19 10:32:26;;;;;;;;;5.00;5.00;;;;;24.81;82.28;101386.28;5085317;27;47098;-71
2023/08/19 10:35:06;;;;;;;;;8.50;7.50;;;;;24.77;81.99;101388.41;5087341;27;45278;-70
2023/08/19 10:37:32;;;;;;;;;6.00;6.00;;;;;24.74;82.86;101377.72;5093250;27;45317;-71
2023/08/19 10:40:13;;;;;;;;;3.00;3.00;;;;;24.77;82.29;101383.81;5085015;27;45287;-72
2023/08/19 10:42:39;;;;;;;;;4.00;4.00;;;;;24.83;82.04;101392.50;5097167;27;46910;-72
2023/08/19 10:45:31;;;;;;;;;5.00;4.25;;;;;24.83;82.22;101385.16;5093069;27;46248;-72
2023/08/19 10:47:57;;;;;;;;;8.00;5.75;;;;;24.80;81.78;101371.75;5080886;27;45338;-72
2023/08/19 10:50:25;;;;;;;;;6.00;6.00;;;;;24.77;83.04;101364.72;5082126;27;45954;-73
2023/08/19 10:53:03;;;;;;;;;5.25;5.00;;;;;24.80;83.21;101388.16;5087714;27;45506;-72
2023/08/19 10:55:48;;;;;;;;;4.75;4.75;;;;;24.82;82.25;101385.28;5083136;27;45559;-73
2023/08/19 10:58:14;;;;;;;;;5.00;4.00;;;;;24.76;82.68;101376.63;5090983;27;45389;-72
2023/08/19 11:00:39;;;;;;;;;5.75;5.75;;;;;24.70;82.17;101368.06;5093084;27;45357;-72
2023/08/19 11:03:05;;;;;;;;;3.50;3.25;;;;;24.71;83.74;101367.09;5088070;27;45621;-72
2023/08/19 11:05:32;;;;;;;;;4.00;4.00;;;;;24.75;82.90;101365.81;5091215;27;45371;-72
2023/08/19 11:07:57;;;;;;;;;3.50;3.50;;;;;24.78;82.41;101380.06;5097053;27;45406;-73
2023/08/19 11:10:24;;;;;;;;;3.25;3.00;;;;;24.80;81.78;101382.69;5094868;27;45670;-65
2023/08/19 11:12:49;;;;;;;;;3.25;3.25;;;;;24.76;82.03;101384.81;5089729;27;45449;-65
2023/08/19 11:15:23;;;;;;;;;3.25;3.25;;;;;24.80;80.70;101393.59;5092317;27;45525;-64
2023/08/19 11:17:49;;;;;;;;;4.00;4.00;;;;;24.82;81.11;101391.59;5090428;27;45406;-64